sensor_id;sensor_type;location;lat;lon;timestamp;P1;durP1;ratioP1;P2;durP2;ratioP2
15905;SDS011;8051;50.820;4.884;2023-03-01T00:00:30;24.03;;;22.17;;
15905;SDS011;8051;50.820;4.884;2023-03-01T00:02:57;24.43;;;22.27;;
15905;SDS011;8051;50.820;4.884;2023-03-01T00:05:25;25.50;;;23.30;;
15905;SDS011;8051;50.820;4.884;2023-03-01T00:07:54;26.57;;;24.37;;
15905;SDS011;8051;50.820;4.884;2023-03-01T00:10:21;25.70;;;23.60;;
15905;SDS011;8051;50.820;4.884;2023-03-01T00:12:48;26.17;;;23.90;;
15905;SDS011;8051;50.820;4.884;2023-03-01T00:15:16;25.97;;;23.97;;
15905;SDS011;8051;50.820;4.884;2023-03-01T00:17:44;26.40;;;24.60;;
15905;SDS011;8051;50.820;4.884;2023-03-01T00:20:11;25.57;;;23.77;;
15905;SDS011;8051;50.820;4.884;2023-03-01T00:22:39;26.37;;;24.47;;
15905;SDS011;8051;50.820;4.884;2023-03-01T00:25:08;28.00;;;25.80;;
15905;SDS011;8051;50.820;4.884;2023-03-01T00:27:36;27.20;;;25.37;;
15905;SDS011;8051;50.820;4.884;2023-03-01T00:30:04;27.73;;;25.47;;
15905;SDS011;8051;50.820;4.884;2023-03-01T00:32:32;27.37;;;25.27;;
15905;SDS011;8051;50.820;4.884;2023-03-01T00:34:59;28.33;;;26.33;;
15905;SDS011;8051;50.820;4.884;2023-03-01T00:37:27;28.33;;;26.23;;
15905;SDS011;8051;50.820;4.884;2023-03-01T00:39:54;29.30;;;27.20;;
15905;SDS011;8051;50.820;4.884;2023-03-01T00:42:23;28.53;;;26.40;;
15905;SDS011;8051;50.820;4.884;2023-03-01T00:44:50;29.33;;;27.23;;
15905;SDS011;8051;50.820;4.884;2023-03-01T00:47:18;29.03;;;26.73;;
15905;SDS011;8051;50.820;4.884;2023-03-01T00:49:45;29.67;;;27.37;;
15905;SDS011;8051;50.820;4.884;2023-03-01T00:52:13;27.73;;;25.73;;
15905;SDS011;8051;50.820;4.884;2023-03-01T00:54:40;28.63;;;26.47;;
15905;SDS011;8051;50.820;4.884;2023-03-01T00:57:07;28.80;;;26.50;;
15905;SDS011;8051;50.820;4.884;2023-03-01T00:59:36;30.93;;;28.10;;
15905;SDS011;8051;50.820;4.884;2023-03-01T01:02:04;30.07;;;27.90;;
15905;SDS011;8051;50.820;4.884;2023-03-01T01:04:31;29.27;;;27.10;;
15905;SDS011;8051;50.820;4.884;2023-03-01T01:06:59;29.83;;;27.57;;
15905;SDS011;8051;50.820;4.884;2023-03-01T01:09:26;29.10;;;26.80;;
15905;SDS011;8051;50.820;4.884;2023-03-01T01:11:54;28.30;;;25.73;;
15905;SDS011;8051;50.820;4.884;2023-03-01T01:14:21;28.33;;;26.17;;
15905;SDS011;8051;50.820;4.884;2023-03-01T01:16:50;27.40;;;25.50;;
15905;SDS011;8051;50.820;4.884;2023-03-01T01:19:17;28.17;;;26.13;;
15905;SDS011;8051;50.820;4.884;2023-03-01T01:21:45;27.87;;;26.00;;
15905;SDS011;8051;50.820;4.884;2023-03-01T01:24:13;29.33;;;27.23;;
15905;SDS011;8051;50.820;4.884;2023-03-01T01:26:42;28.83;;;26.63;;
15905;SDS011;8051;50.820;4.884;2023-03-01T01:29:09;28.50;;;26.17;;
15905;SDS011;8051;50.820;4.884;2023-03-01T01:31:38;29.43;;;27.00;;
15905;SDS011;8051;50.820;4.884;2023-03-01T01:34:08;27.87;;;25.97;;
15905;SDS011;8051;50.820;4.884;2023-03-01T01:36:40;30.03;;;27.67;;
15905;SDS011;8051;50.820;4.884;2023-03-01T01:39:07;29.60;;;27.33;;
15905;SDS011;8051;50.820;4.884;2023-03-01T01:41:38;28.77;;;26.67;;
15905;SDS011;8051;50.820;4.884;2023-03-01T01:44:15;27.83;;;25.93;;
15905;SDS011;8051;50.820;4.884;2023-03-01T01:46:45;30.10;;;27.80;;
15905;SDS011;8051;50.820;4.884;2023-03-01T01:49:19;28.07;;;26.13;;
15905;SDS011;8051;50.820;4.884;2023-03-01T01:51:55;28.73;;;26.37;;
15905;SDS011;8051;50.820;4.884;2023-03-01T01:54:27;28.17;;;25.60;;
15905;SDS011;8051;50.820;4.884;2023-03-01T01:57:01;29.00;;;27.00;;
15905;SDS011;8051;50.820;4.884;2023-03-01T01:59:31;29.50;;;27.40;;
15905;SDS011;8051;50.820;4.884;2023-03-01T02:02:00;29.10;;;27.07;;
15905;SDS011;8051;50.820;4.884;2023-03-01T02:04:31;30.60;;;27.97;;
15905;SDS011;8051;50.820;4.884;2023-03-01T02:07:00;29.90;;;27.80;;
15905;SDS011;8051;50.820;4.884;2023-03-01T02:09:31;29.97;;;27.73;;
15905;SDS011;8051;50.820;4.884;2023-03-01T02:12:00;30.57;;;28.33;;
15905;SDS011;8051;50.820;4.884;2023-03-01T02:14:28;29.63;;;27.53;;
15905;SDS011;8051;50.820;4.884;2023-03-01T02:16:56;30.00;;;27.60;;
15905;SDS011;8051;50.820;4.884;2023-03-01T02:19:26;29.00;;;26.93;;
15905;SDS011;8051;50.820;4.884;2023-03-01T02:22:07;31.10;;;28.90;;
15905;SDS011;8051;50.820;4.884;2023-03-01T02:24:45;30.30;;;27.87;;
15905;SDS011;8051;50.820;4.884;2023-03-01T02:27:22;30.33;;;28.10;;
15905;SDS011;8051;50.820;4.884;2023-03-01T02:29:59;31.03;;;28.60;;
15905;SDS011;8051;50.820;4.884;2023-03-01T02:32:27;28.23;;;26.20;;
15905;SDS011;8051;50.820;4.884;2023-03-01T02:34:54;28.47;;;26.43;;
15905;SDS011;8051;50.820;4.884;2023-03-01T02:37:22;30.20;;;27.53;;
15905;SDS011;8051;50.820;4.884;2023-03-01T02:39:53;30.40;;;27.97;;
15905;SDS011;8051;50.820;4.884;2023-03-01T02:42:26;30.23;;;27.93;;
15905;SDS011;8051;50.820;4.884;2023-03-01T02:44:57;31.47;;;28.93;;
15905;SDS011;8051;50.820;4.884;2023-03-01T02:47:26;30.63;;;28.17;;
15905;SDS011;8051;50.820;4.884;2023-03-01T02:49:53;29.97;;;27.73;;
15905;SDS011;8051;50.820;4.884;2023-03-01T02:52:23;31.97;;;29.60;;
15905;SDS011;8051;50.820;4.884;2023-03-01T02:55:01;31.60;;;29.27;;
15905;SDS011;8051;50.820;4.884;2023-03-01T02:57:33;33.17;;;30.53;;
15905;SDS011;8051;50.820;4.884;2023-03-01T03:00:03;33.17;;;30.60;;
15905;SDS011;8051;50.820;4.884;2023-03-01T03:02:36;32.10;;;29.43;;
15905;SDS011;8051;50.820;4.884;2023-03-01T03:05:04;32.90;;;30.40;;
15905;SDS011;8051;50.820;4.884;2023-03-01T03:07:34;33.90;;;31.30;;
15905;SDS011;8051;50.820;4.884;2023-03-01T03:10:03;33.27;;;30.70;;
15905;SDS011;8051;50.820;4.884;2023-03-01T03:12:33;34.00;;;31.10;;
15905;SDS011;8051;50.820;4.884;2023-03-01T03:15:00;32.57;;;29.97;;
15905;SDS011;8051;50.820;4.884;2023-03-01T03:17:33;33.27;;;30.87;;
15905;SDS011;8051;50.820;4.884;2023-03-01T03:20:03;32.63;;;30.30;;
15905;SDS011;8051;50.820;4.884;2023-03-01T03:22:36;32.73;;;30.33;;
15905;SDS011;8051;50.820;4.884;2023-03-01T03:25:04;34.50;;;31.63;;
15905;SDS011;8051;50.820;4.884;2023-03-01T03:27:35;30.83;;;28.60;;
15905;SDS011;8051;50.820;4.884;2023-03-01T03:30:04;31.43;;;28.73;;
15905;SDS011;8051;50.820;4.884;2023-03-01T03:32:35;30.67;;;28.37;;
15905;SDS011;8051;50.820;4.884;2023-03-01T03:35:03;29.40;;;27.17;;
15905;SDS011;8051;50.820;4.884;2023-03-01T03:37:35;29.43;;;26.97;;
15905;SDS011;8051;50.820;4.884;2023-03-01T03:40:20;28.33;;;26.33;;
15905;SDS011;8051;50.820;4.884;2023-03-01T03:42:47;31.07;;;27.80;;
15905;SDS011;8051;50.820;4.884;2023-03-01T03:45:15;32.20;;;29.80;;
15905;SDS011;8051;50.820;4.884;2023-03-01T03:47:44;33.17;;;30.67;;
15905;SDS011;8051;50.820;4.884;2023-03-01T03:50:13;32.03;;;29.17;;
15905;SDS011;8051;50.820;4.884;2023-03-01T03:52:42;31.20;;;29.00;;
15905;SDS011;8051;50.820;4.884;2023-03-01T03:55:10;33.30;;;30.80;;
15905;SDS011;8051;50.820;4.884;2023-03-01T03:57:38;33.87;;;31.37;;
15905;SDS011;8051;50.820;4.884;2023-03-01T04:00:08;31.97;;;29.47;;
15905;SDS011;8051;50.820;4.884;2023-03-01T04:02:38;33.50;;;31.00;;
15905;SDS011;8051;50.820;4.884;2023-03-01T04:05:08;33.57;;;30.87;;
15905;SDS011;8051;50.820;4.884;2023-03-01T04:07:37;36.20;;;32.97;;
15905;SDS011;8051;50.820;4.884;2023-03-01T04:10:05;34.40;;;31.37;;
15905;SDS011;8051;50.820;4.884;2023-03-01T04:12:35;32.23;;;29.83;;
15905;SDS011;8051;50.820;4.884;2023-03-01T04:15:03;36.93;;;33.63;;
15905;SDS011;8051;50.820;4.884;2023-03-01T04:17:38;34.60;;;31.83;;
15905;SDS011;8051;50.820;4.884;2023-03-01T04:20:09;33.37;;;30.77;;
15905;SDS011;8051;50.820;4.884;2023-03-01T04:22:38;35.97;;;33.27;;
15905;SDS011;8051;50.820;4.884;2023-03-01T04:25:06;36.10;;;33.20;;
15905;SDS011;8051;50.820;4.884;2023-03-01T04:27:39;33.07;;;30.40;;
15905;SDS011;8051;50.820;4.884;2023-03-01T04:30:07;34.97;;;32.37;;
15905;SDS011;8051;50.820;4.884;2023-03-01T04:32:36;34.90;;;32.00;;
15905;SDS011;8051;50.820;4.884;2023-03-01T04:35:03;32.50;;;30.03;;
15905;SDS011;8051;50.820;4.884;2023-03-01T04:37:32;32.63;;;30.23;;
15905;SDS011;8051;50.820;4.884;2023-03-01T04:40:00;36.30;;;32.87;;
15905;SDS011;8051;50.820;4.884;2023-03-01T04:42:37;35.10;;;32.03;;
15905;SDS011;8051;50.820;4.884;2023-03-01T04:45:06;32.13;;;29.37;;
15905;SDS011;8051;50.820;4.884;2023-03-01T04:47:38;32.57;;;29.97;;
15905;SDS011;8051;50.820;4.884;2023-03-01T04:50:08;34.67;;;31.80;;
15905;SDS011;8051;50.820;4.884;2023-03-01T04:52:37;33.23;;;30.60;;
15905;SDS011;8051;50.820;4.884;2023-03-01T04:55:05;34.63;;;32.07;;
15905;SDS011;8051;50.820;4.884;2023-03-01T04:57:33;33.40;;;30.80;;
15905;SDS011;8051;50.820;4.884;2023-03-01T05:00:01;32.40;;;29.97;;
15905;SDS011;8051;50.820;4.884;2023-03-01T05:02:45;30.53;;;28.17;;
15905;SDS011;8051;50.820;4.884;2023-03-01T05:05:18;35.67;;;32.43;;
15905;SDS011;8051;50.820;4.884;2023-03-01T05:07:48;33.00;;;30.30;;
15905;SDS011;8051;50.820;4.884;2023-03-01T05:10:15;35.53;;;32.73;;
15905;SDS011;8051;50.820;4.884;2023-03-01T05:12:43;34.63;;;31.03;;
15905;SDS011;8051;50.820;4.884;2023-03-01T05:15:11;36.00;;;33.10;;
15905;SDS011;8051;50.820;4.884;2023-03-01T05:17:39;33.43;;;30.77;;
15905;SDS011;8051;50.820;4.884;2023-03-01T05:20:07;34.40;;;31.37;;
15905;SDS011;8051;50.820;4.884;2023-03-01T05:22:36;36.83;;;33.33;;
15905;SDS011;8051;50.820;4.884;2023-03-01T05:25:05;39.67;;;36.47;;
15905;SDS011;8051;50.820;4.884;2023-03-01T05:27:33;35.23;;;32.53;;
15905;SDS011;8051;50.820;4.884;2023-03-01T05:30:02;37.53;;;34.63;;
15905;SDS011;8051;50.820;4.884;2023-03-01T05:32:39;36.27;;;33.33;;
15905;SDS011;8051;50.820;4.884;2023-03-01T05:35:09;37.63;;;34.33;;
15905;SDS011;8051;50.820;4.884;2023-03-01T05:37:39;35.63;;;32.43;;
15905;SDS011;8051;50.820;4.884;2023-03-01T05:40:11;37.70;;;34.77;;
15905;SDS011;8051;50.820;4.884;2023-03-01T05:42:44;38.47;;;35.33;;
15905;SDS011;8051;50.820;4.884;2023-03-01T05:45:14;32.93;;;30.43;;
15905;SDS011;8051;50.820;4.884;2023-03-01T05:47:43;36.53;;;33.63;;
15905;SDS011;8051;50.820;4.884;2023-03-01T05:50:12;34.47;;;31.87;;
15905;SDS011;8051;50.820;4.884;2023-03-01T05:52:44;36.73;;;33.93;;
15905;SDS011;8051;50.820;4.884;2023-03-01T05:55:15;34.97;;;31.80;;
15905;SDS011;8051;50.820;4.884;2023-03-01T05:57:43;35.90;;;33.10;;
15905;SDS011;8051;50.820;4.884;2023-03-01T06:00:11;37.50;;;33.80;;
15905;SDS011;8051;50.820;4.884;2023-03-01T06:02:41;35.57;;;32.97;;
15905;SDS011;8051;50.820;4.884;2023-03-01T06:05:09;37.87;;;34.47;;
15905;SDS011;8051;50.820;4.884;2023-03-01T06:07:40;35.70;;;32.90;;
15905;SDS011;8051;50.820;4.884;2023-03-01T06:10:08;33.67;;;31.10;;
15905;SDS011;8051;50.820;4.884;2023-03-01T06:12:38;36.47;;;33.33;;
15905;SDS011;8051;50.820;4.884;2023-03-01T06:15:07;34.10;;;31.50;;
15905;SDS011;8051;50.820;4.884;2023-03-01T06:17:37;35.30;;;32.60;;
15905;SDS011;8051;50.820;4.884;2023-03-01T06:20:06;33.47;;;30.77;;
15905;SDS011;8051;50.820;4.884;2023-03-01T06:22:36;37.10;;;34.00;;
15905;SDS011;8051;50.820;4.884;2023-03-01T06:25:03;34.63;;;32.03;;
15905;SDS011;8051;50.820;4.884;2023-03-01T06:27:31;37.20;;;34.27;;
15905;SDS011;8051;50.820;4.884;2023-03-01T06:30:00;35.67;;;32.73;;
15905;SDS011;8051;50.820;4.884;2023-03-01T06:32:28;37.77;;;34.80;;
15905;SDS011;8051;50.820;4.884;2023-03-01T06:34:57;36.40;;;33.43;;
15905;SDS011;8051;50.820;4.884;2023-03-01T06:37:24;36.93;;;33.23;;
15905;SDS011;8051;50.820;4.884;2023-03-01T06:39:52;37.63;;;34.73;;
15905;SDS011;8051;50.820;4.884;2023-03-01T06:42:20;37.80;;;34.70;;
15905;SDS011;8051;50.820;4.884;2023-03-01T06:44:47;40.17;;;36.77;;
15905;SDS011;8051;50.820;4.884;2023-03-01T06:47:16;36.90;;;33.83;;
15905;SDS011;8051;50.820;4.884;2023-03-01T06:49:43;39.00;;;35.77;;
15905;SDS011;8051;50.820;4.884;2023-03-01T06:52:11;37.67;;;34.07;;
15905;SDS011;8051;50.820;4.884;2023-03-01T06:54:38;35.53;;;32.50;;
15905;SDS011;8051;50.820;4.884;2023-03-01T06:57:06;33.97;;;31.20;;
15905;SDS011;8051;50.820;4.884;2023-03-01T06:59:33;32.67;;;29.83;;
15905;SDS011;8051;50.820;4.884;2023-03-01T07:02:01;31.33;;;28.83;;
15905;SDS011;8051;50.820;4.884;2023-03-01T07:04:29;32.03;;;29.43;;
15905;SDS011;8051;50.820;4.884;2023-03-01T07:06:57;33.47;;;30.67;;
15905;SDS011;8051;50.820;4.884;2023-03-01T07:09:24;33.37;;;29.90;;
15905;SDS011;8051;50.820;4.884;2023-03-01T07:11:52;32.23;;;29.70;;
15905;SDS011;8051;50.820;4.884;2023-03-01T07:14:19;34.20;;;31.27;;
15905;SDS011;8051;50.820;4.884;2023-03-01T07:16:49;32.70;;;30.17;;
15905;SDS011;8051;50.820;4.884;2023-03-01T07:19:17;34.80;;;32.03;;
15905;SDS011;8051;50.820;4.884;2023-03-01T07:21:46;34.17;;;31.37;;
15905;SDS011;8051;50.820;4.884;2023-03-01T07:24:13;34.30;;;31.33;;
15905;SDS011;8051;50.820;4.884;2023-03-01T07:26:41;36.57;;;33.53;;
15905;SDS011;8051;50.820;4.884;2023-03-01T07:29:09;35.93;;;33.13;;
15905;SDS011;8051;50.820;4.884;2023-03-01T07:31:37;33.90;;;30.50;;
15905;SDS011;8051;50.820;4.884;2023-03-01T07:34:04;31.97;;;29.47;;
15905;SDS011;8051;50.820;4.884;2023-03-01T07:36:32;32.20;;;29.70;;
15905;SDS011;8051;50.820;4.884;2023-03-01T07:39:01;32.90;;;30.27;;
15905;SDS011;8051;50.820;4.884;2023-03-01T07:41:29;31.47;;;29.10;;
15905;SDS011;8051;50.820;4.884;2023-03-01T07:43:56;30.30;;;27.77;;
15905;SDS011;8051;50.820;4.884;2023-03-01T07:46:24;32.00;;;29.47;;
15905;SDS011;8051;50.820;4.884;2023-03-01T07:48:51;33.57;;;30.60;;
15905;SDS011;8051;50.820;4.884;2023-03-01T07:51:19;30.57;;;28.17;;
15905;SDS011;8051;50.820;4.884;2023-03-01T07:53:46;33.90;;;31.20;;
15905;SDS011;8051;50.820;4.884;2023-03-01T07:56:16;31.10;;;28.60;;
15905;SDS011;8051;50.820;4.884;2023-03-01T07:58:44;33.23;;;29.20;;
15905;SDS011;8051;50.820;4.884;2023-03-01T08:01:12;32.50;;;29.70;;
15905;SDS011;8051;50.820;4.884;2023-03-01T08:03:41;30.67;;;28.27;;
15905;SDS011;8051;50.820;4.884;2023-03-01T08:06:09;32.03;;;29.53;;
15905;SDS011;8051;50.820;4.884;2023-03-01T08:08:37;31.77;;;29.23;;
15905;SDS011;8051;50.820;4.884;2023-03-01T08:11:05;30.57;;;28.33;;
15905;SDS011;8051;50.820;4.884;2023-03-01T08:13:37;30.67;;;27.87;;
15905;SDS011;8051;50.820;4.884;2023-03-01T08:16:06;30.53;;;27.80;;
15905;SDS011;8051;50.820;4.884;2023-03-01T08:18:36;32.67;;;29.33;;
15905;SDS011;8051;50.820;4.884;2023-03-01T08:21:04;31.93;;;29.43;;
15905;SDS011;8051;50.820;4.884;2023-03-01T08:23:32;30.77;;;28.17;;
15905;SDS011;8051;50.820;4.884;2023-03-01T08:26:04;31.30;;;28.63;;
15905;SDS011;8051;50.820;4.884;2023-03-01T08:28:33;30.17;;;27.77;;
15905;SDS011;8051;50.820;4.884;2023-03-01T08:31:03;30.83;;;28.53;;
15905;SDS011;8051;50.820;4.884;2023-03-01T08:33:39;29.60;;;27.20;;
15905;SDS011;8051;50.820;4.884;2023-03-01T08:36:07;27.20;;;25.00;;
15905;SDS011;8051;50.820;4.884;2023-03-01T08:38:34;28.83;;;26.63;;
15905;SDS011;8051;50.820;4.884;2023-03-01T08:41:02;29.93;;;27.63;;
15905;SDS011;8051;50.820;4.884;2023-03-01T08:43:30;29.13;;;26.77;;
15905;SDS011;8051;50.820;4.884;2023-03-01T08:45:58;28.73;;;26.53;;
15905;SDS011;8051;50.820;4.884;2023-03-01T08:48:26;30.47;;;28.07;;
15905;SDS011;8051;50.820;4.884;2023-03-01T08:50:54;30.40;;;28.00;;
15905;SDS011;8051;50.820;4.884;2023-03-01T08:53:22;29.10;;;26.93;;
15905;SDS011;8051;50.820;4.884;2023-03-01T08:55:49;31.20;;;28.60;;
15905;SDS011;8051;50.820;4.884;2023-03-01T08:58:17;30.97;;;28.47;;
15905;SDS011;8051;50.820;4.884;2023-03-01T09:00:44;31.03;;;28.53;;
15905;SDS011;8051;50.820;4.884;2023-03-01T09:03:12;30.10;;;27.63;;
15905;SDS011;8051;50.820;4.884;2023-03-01T09:05:40;31.40;;;28.77;;
15905;SDS011;8051;50.820;4.884;2023-03-01T09:08:11;29.93;;;27.60;;
15905;SDS011;8051;50.820;4.884;2023-03-01T09:10:38;30.93;;;28.43;;
15905;SDS011;8051;50.820;4.884;2023-03-01T09:13:05;30.03;;;27.63;;
15905;SDS011;8051;50.820;4.884;2023-03-01T09:15:33;29.40;;;26.97;;
15905;SDS011;8051;50.820;4.884;2023-03-01T09:18:00;31.67;;;28.63;;
15905;SDS011;8051;50.820;4.884;2023-03-01T09:20:28;30.37;;;27.70;;
15905;SDS011;8051;50.820;4.884;2023-03-01T09:22:58;27.70;;;25.60;;
15905;SDS011;8051;50.820;4.884;2023-03-01T09:25:25;30.50;;;27.47;;
15905;SDS011;8051;50.820;4.884;2023-03-01T09:27:53;29.63;;;27.20;;
15905;SDS011;8051;50.820;4.884;2023-03-01T09:30:21;29.63;;;26.87;;
15905;SDS011;8051;50.820;4.884;2023-03-01T09:32:49;27.97;;;25.57;;
15905;SDS011;8051;50.820;4.884;2023-03-01T09:35:17;28.87;;;26.57;;
15905;SDS011;8051;50.820;4.884;2023-03-01T09:37:45;29.57;;;27.07;;
15905;SDS011;8051;50.820;4.884;2023-03-01T09:40:17;28.73;;;26.33;;
15905;SDS011;8051;50.820;4.884;2023-03-01T09:42:49;30.53;;;27.80;;
15905;SDS011;8051;50.820;4.884;2023-03-01T09:45:26;30.30;;;27.47;;
15905;SDS011;8051;50.820;4.884;2023-03-01T09:47:56;28.93;;;26.43;;
15905;SDS011;8051;50.820;4.884;2023-03-01T09:50:24;27.53;;;25.13;;
15905;SDS011;8051;50.820;4.884;2023-03-01T09:53:00;27.90;;;25.73;;
15905;SDS011;8051;50.820;4.884;2023-03-01T09:55:31;26.63;;;24.50;;
15905;SDS011;8051;50.820;4.884;2023-03-01T09:58:06;28.30;;;26.10;;
15905;SDS011;8051;50.820;4.884;2023-03-01T10:01:09;28.60;;;26.27;;
15905;SDS011;8051;50.820;4.884;2023-03-01T10:03:52;28.33;;;26.07;;
15905;SDS011;8051;50.820;4.884;2023-03-01T10:06:29;27.10;;;24.70;;
15905;SDS011;8051;50.820;4.884;2023-03-01T10:08:57;26.83;;;24.63;;
15905;SDS011;8051;50.820;4.884;2023-03-01T10:11:30;28.57;;;26.17;;
15905;SDS011;8051;50.820;4.884;2023-03-01T10:14:03;27.50;;;25.30;;
15905;SDS011;8051;50.820;4.884;2023-03-01T10:16:36;27.97;;;25.67;;
15905;SDS011;8051;50.820;4.884;2023-03-01T10:19:10;27.20;;;25.10;;
15905;SDS011;8051;50.820;4.884;2023-03-01T10:21:43;28.13;;;25.73;;
15905;SDS011;8051;50.820;4.884;2023-03-01T10:24:12;25.73;;;23.63;;
15905;SDS011;8051;50.820;4.884;2023-03-01T10:26:49;26.37;;;24.07;;
15905;SDS011;8051;50.820;4.884;2023-03-01T10:29:23;25.07;;;23.13;;
15905;SDS011;8051;50.820;4.884;2023-03-01T10:31:53;27.53;;;25.20;;
15905;SDS011;8051;50.820;4.884;2023-03-01T10:34:22;25.27;;;23.17;;
15905;SDS011;8051;50.820;4.884;2023-03-01T10:36:56;25.10;;;22.87;;
15905;SDS011;8051;50.820;4.884;2023-03-01T10:39:27;25.90;;;23.80;;
15905;SDS011;8051;50.820;4.884;2023-03-01T10:41:58;25.20;;;23.10;;
15905;SDS011;8051;50.820;4.884;2023-03-01T10:44:36;25.33;;;23.13;;
15905;SDS011;8051;50.820;4.884;2023-03-01T10:47:08;24.83;;;22.63;;
15905;SDS011;8051;50.820;4.884;2023-03-01T10:49:58;26.50;;;23.93;;
15905;SDS011;8051;50.820;4.884;2023-03-01T10:52:29;25.40;;;23.17;;
15905;SDS011;8051;50.820;4.884;2023-03-01T10:54:59;24.13;;;22.23;;
15905;SDS011;8051;50.820;4.884;2023-03-01T10:57:31;24.53;;;22.57;;
15905;SDS011;8051;50.820;4.884;2023-03-01T11:00:14;24.37;;;22.07;;
15905;SDS011;8051;50.820;4.884;2023-03-01T11:02:46;22.83;;;20.77;;
15905;SDS011;8051;50.820;4.884;2023-03-01T11:05:17;23.27;;;21.37;;
15905;SDS011;8051;50.820;4.884;2023-03-01T11:07:50;23.27;;;21.37;;
15905;SDS011;8051;50.820;4.884;2023-03-01T11:10:20;26.30;;;23.23;;
15905;SDS011;8051;50.820;4.884;2023-03-01T11:12:51;21.30;;;19.67;;
15905;SDS011;8051;50.820;4.884;2023-03-01T11:15:21;21.10;;;18.90;;
15905;SDS011;8051;50.820;4.884;2023-03-01T11:17:51;22.47;;;20.67;;
15905;SDS011;8051;50.820;4.884;2023-03-01T11:20:22;22.33;;;20.37;;
15905;SDS011;8051;50.820;4.884;2023-03-01T11:22:58;20.77;;;19.03;;
15905;SDS011;8051;50.820;4.884;2023-03-01T11:25:29;22.57;;;20.50;;
15905;SDS011;8051;50.820;4.884;2023-03-01T11:28:03;22.63;;;20.63;;
15905;SDS011;8051;50.820;4.884;2023-03-01T11:30:34;22.47;;;20.43;;
15905;SDS011;8051;50.820;4.884;2023-03-01T11:36:01;21.90;;;20.00;;
15905;SDS011;8051;50.820;4.884;2023-03-01T11:38:34;22.60;;;20.63;;
15905;SDS011;8051;50.820;4.884;2023-03-01T11:41:04;21.80;;;20.00;;
15905;SDS011;8051;50.820;4.884;2023-03-01T11:43:37;23.47;;;21.53;;
15905;SDS011;8051;50.820;4.884;2023-03-01T11:49:15;22.10;;;20.13;;
15905;SDS011;8051;50.820;4.884;2023-03-01T11:51:54;22.03;;;20.33;;
15905;SDS011;8051;50.820;4.884;2023-03-01T11:54:28;20.90;;;19.27;;
15905;SDS011;8051;50.820;4.884;2023-03-01T11:57:08;22.33;;;20.33;;
15905;SDS011;8051;50.820;4.884;2023-03-01T12:00:02;22.87;;;20.67;;
15905;SDS011;8051;50.820;4.884;2023-03-01T12:05:52;22.07;;;20.03;;
15905;SDS011;8051;50.820;4.884;2023-03-01T12:08:40;22.30;;;20.40;;
15905;SDS011;8051;50.820;4.884;2023-03-01T12:11:14;23.17;;;20.77;;
15905;SDS011;8051;50.820;4.884;2023-03-01T12:13:53;21.13;;;19.27;;
15905;SDS011;8051;50.820;4.884;2023-03-01T12:16:38;22.17;;;20.33;;
15905;SDS011;8051;50.820;4.884;2023-03-01T12:19:17;22.93;;;20.67;;
15905;SDS011;8051;50.820;4.884;2023-03-01T12:22:06;23.93;;;21.60;;
15905;SDS011;8051;50.820;4.884;2023-03-01T12:24:48;23.67;;;21.43;;
15905;SDS011;8051;50.820;4.884;2023-03-01T12:27:47;22.77;;;20.73;;
15905;SDS011;8051;50.820;4.884;2023-03-01T12:30:34;23.50;;;21.50;;
15905;SDS011;8051;50.820;4.884;2023-03-01T12:33:17;26.17;;;22.80;;
15905;SDS011;8051;50.820;4.884;2023-03-01T12:35:54;23.10;;;20.90;;
15905;SDS011;8051;50.820;4.884;2023-03-01T12:38:48;22.73;;;20.27;;
15905;SDS011;8051;50.820;4.884;2023-03-01T12:41:42;22.67;;;20.47;;
15905;SDS011;8051;50.820;4.884;2023-03-01T12:44:19;24.67;;;22.20;;
15905;SDS011;8051;50.820;4.884;2023-03-01T12:47:01;23.83;;;21.43;;
15905;SDS011;8051;50.820;4.884;2023-03-01T12:49:40;26.40;;;23.57;;
15905;SDS011;8051;50.820;4.884;2023-03-01T12:52:13;26.13;;;23.47;;
15905;SDS011;8051;50.820;4.884;2023-03-01T12:54:45;25.20;;;21.90;;
15905;SDS011;8051;50.820;4.884;2023-03-01T12:57:15;24.30;;;22.00;;
15905;SDS011;8051;50.820;4.884;2023-03-01T12:59:51;23.17;;;21.13;;
15905;SDS011;8051;50.820;4.884;2023-03-01T13:02:34;19.60;;;17.90;;
15905;SDS011;8051;50.820;4.884;2023-03-01T13:05:13;21.13;;;19.13;;
15905;SDS011;8051;50.820;4.884;2023-03-01T13:07:49;20.27;;;18.43;;
15905;SDS011;8051;50.820;4.884;2023-03-01T13:10:26;19.87;;;18.17;;
15905;SDS011;8051;50.820;4.884;2023-03-01T13:13:11;19.50;;;17.70;;
15905;SDS011;8051;50.820;4.884;2023-03-01T13:15:41;19.20;;;17.47;;
15905;SDS011;8051;50.820;4.884;2023-03-01T13:18:27;18.87;;;16.97;;
15905;SDS011;8051;50.820;4.884;2023-03-01T13:20:58;20.53;;;18.70;;
15905;SDS011;8051;50.820;4.884;2023-03-01T13:23:28;19.70;;;17.77;;
15905;SDS011;8051;50.820;4.884;2023-03-01T13:26:06;19.03;;;17.17;;
15905;SDS011;8051;50.820;4.884;2023-03-01T13:28:38;17.77;;;16.43;;
15905;SDS011;8051;50.820;4.884;2023-03-01T13:31:08;18.27;;;16.83;;
15905;SDS011;8051;50.820;4.884;2023-03-01T13:33:40;18.00;;;16.33;;
15905;SDS011;8051;50.820;4.884;2023-03-01T13:36:11;18.00;;;16.50;;
15905;SDS011;8051;50.820;4.884;2023-03-01T13:39:27;19.07;;;17.40;;
15905;SDS011;8051;50.820;4.884;2023-03-01T13:41:58;17.67;;;15.87;;
15905;SDS011;8051;50.820;4.884;2023-03-01T13:44:30;16.53;;;15.13;;
15905;SDS011;8051;50.820;4.884;2023-03-01T13:47:03;18.93;;;17.23;;
15905;SDS011;8051;50.820;4.884;2023-03-01T13:49:43;16.40;;;14.90;;
15905;SDS011;8051;50.820;4.884;2023-03-01T13:52:26;19.60;;;16.37;;
15905;SDS011;8051;50.820;4.884;2023-03-01T13:55:03;16.87;;;15.20;;
15905;SDS011;8051;50.820;4.884;2023-03-01T13:57:33;17.83;;;16.33;;
15905;SDS011;8051;50.820;4.884;2023-03-01T14:00:04;16.93;;;15.57;;
15905;SDS011;8051;50.820;4.884;2023-03-01T14:02:33;19.53;;;17.63;;
15905;SDS011;8051;50.820;4.884;2023-03-01T14:05:03;18.00;;;16.47;;
15905;SDS011;8051;50.820;4.884;2023-03-01T14:07:38;18.03;;;16.47;;
15905;SDS011;8051;50.820;4.884;2023-03-01T14:10:06;17.37;;;15.70;;
15905;SDS011;8051;50.820;4.884;2023-03-01T14:12:39;18.40;;;16.80;;
15905;SDS011;8051;50.820;4.884;2023-03-01T14:15:16;17.67;;;15.97;;
15905;SDS011;8051;50.820;4.884;2023-03-01T14:17:49;16.43;;;14.87;;
15905;SDS011;8051;50.820;4.884;2023-03-01T14:20:24;17.23;;;15.73;;
15905;SDS011;8051;50.820;4.884;2023-03-01T14:22:55;17.27;;;15.70;;
15905;SDS011;8051;50.820;4.884;2023-03-01T14:25:28;17.37;;;15.83;;
15905;SDS011;8051;50.820;4.884;2023-03-01T14:28:01;17.83;;;16.33;;
15905;SDS011;8051;50.820;4.884;2023-03-01T14:30:32;16.00;;;14.47;;
15905;SDS011;8051;50.820;4.884;2023-03-01T14:33:03;17.43;;;15.40;;
15905;SDS011;8051;50.820;4.884;2023-03-01T14:35:32;16.83;;;15.53;;
15905;SDS011;8051;50.820;4.884;2023-03-01T14:38:02;15.80;;;14.60;;
15905;SDS011;8051;50.820;4.884;2023-03-01T14:40:31;18.00;;;16.30;;
15905;SDS011;8051;50.820;4.884;2023-03-01T14:43:00;20.07;;;17.27;;
15905;SDS011;8051;50.820;4.884;2023-03-01T14:45:34;17.83;;;16.20;;
15905;SDS011;8051;50.820;4.884;2023-03-01T14:48:03;17.87;;;16.27;;
15905;SDS011;8051;50.820;4.884;2023-03-01T14:50:32;18.77;;;15.07;;
15905;SDS011;8051;50.820;4.884;2023-03-01T14:53:04;17.60;;;15.90;;
15905;SDS011;8051;50.820;4.884;2023-03-01T14:55:34;17.83;;;16.43;;
15905;SDS011;8051;50.820;4.884;2023-03-01T14:58:08;18.40;;;17.00;;
15905;SDS011;8051;50.820;4.884;2023-03-01T15:00:38;18.03;;;16.33;;
15905;SDS011;8051;50.820;4.884;2023-03-01T15:03:13;20.50;;;17.43;;
15905;SDS011;8051;50.820;4.884;2023-03-01T15:05:46;19.57;;;17.97;;